sensor_id;sensor_type;location;lat;lon;timestamp;pressure;altitude;pressure_sealevel;temperature;humidity
42887;BME280;29032;56.028;92.904;2023-03-17T00:03:21;100362.84;;;-4.31;46.81
42887;BME280;29032;56.028;92.904;2023-03-17T00:08:26;100367.81;;;-4.42;47.00
42887;BME280;29032;56.028;92.904;2023-03-17T00:13:29;100370.59;;;-4.58;47.24
42887;BME280;29032;56.028;92.904;2023-03-17T00:18:32;100372.00;;;-4.54;47.76
42887;BME280;29032;56.028;92.904;2023-03-17T00:23:34;100376.53;;;-4.47;47.34
42887;BME280;29032;56.028;92.904;2023-03-17T00:28:38;100375.31;;;-4.30;47.25
42887;BME280;29032;56.028;92.904;2023-03-17T00:33:41;100376.66;;;-4.22;47.55
42887;BME280;29032;56.028;92.904;2023-03-17T00:38:44;100365.75;;;-4.22;48.02
42887;BME280;29032;56.028;92.904;2023-03-17T00:43:48;100375.84;;;-4.06;47.58
42887;BME280;29032;56.028;92.904;2023-03-17T00:48:50;100372.41;;;-3.94;48.39
42887;BME280;29032;56.028;92.904;2023-03-17T00:53:52;100368.63;;;-3.71;48.10
42887;BME280;29032;56.028;92.904;2023-03-17T00:58:56;100367.91;;;-3.59;49.29
42887;BME280;29032;56.028;92.904;2023-03-17T01:03:58;100357.81;;;-3.62;49.19
42887;BME280;29032;56.028;92.904;2023-03-17T01:09:00;100369.88;;;-3.46;49.07
42887;BME280;29032;56.028;92.904;2023-03-17T01:14:04;100377.44;;;-3.38;49.05
42887;BME280;29032;56.028;92.904;2023-03-17T01:19:06;100378.00;;;-3.30;49.32
42887;BME280;29032;56.028;92.904;2023-03-17T01:24:08;100374.28;;;-3.36;48.76
42887;BME280;29032;56.028;92.904;2023-03-17T01:29:12;100378.06;;;-3.46;49.00
42887;BME280;29032;56.028;92.904;2023-03-17T01:34:15;100380.16;;;-3.50;49.01
42887;BME280;29032;56.028;92.904;2023-03-17T01:39:17;100381.25;;;-3.48;49.50
42887;BME280;29032;56.028;92.904;2023-03-17T01:44:22;100386.09;;;-3.39;49.57
42887;BME280;29032;56.028;92.904;2023-03-17T01:49:27;100391.03;;;-3.21;49.21
42887;BME280;29032;56.028;92.904;2023-03-17T01:54:35;100378.88;;;-3.08;48.99
42887;BME280;29032;56.028;92.904;2023-03-17T01:59:43;100398.94;;;-3.11;48.56
42887;BME280;29032;56.028;92.904;2023-03-17T02:04:47;100402.97;;;-3.15;49.08
42887;BME280;29032;56.028;92.904;2023-03-17T02:09:50;100408.44;;;-3.15;49.32
42887;BME280;29032;56.028;92.904;2023-03-17T02:14:56;100411.81;;;-3.11;49.31
42887;BME280;29032;56.028;92.904;2023-03-17T02:20:12;100415.56;;;-2.92;48.57
42887;BME280;29032;56.028;92.904;2023-03-17T02:25:17;100422.56;;;-2.79;48.92
42887;BME280;29032;56.028;92.904;2023-03-17T02:30:21;100417.16;;;-2.57;48.31
42887;BME280;29032;56.028;92.904;2023-03-17T02:35:24;100417.88;;;-2.31;48.22
42887;BME280;29032;56.028;92.904;2023-03-17T02:40:27;100417.63;;;-2.11;47.39
42887;BME280;29032;56.028;92.904;2023-03-17T02:45:30;100420.75;;;-2.00;47.32
42887;BME280;29032;56.028;92.904;2023-03-17T02:50:32;100422.03;;;-1.92;47.15
42887;BME280;29032;56.028;92.904;2023-03-17T02:55:36;100417.91;;;-1.74;46.41
42887;BME280;29032;56.028;92.904;2023-03-17T03:00:38;100432.31;;;-1.61;46.34
42887;BME280;29032;56.028;92.904;2023-03-17T03:05:41;100424.19;;;-1.43;46.44
42887;BME280;29032;56.028;92.904;2023-03-17T03:10:45;100433.75;;;-1.25;46.23
42887;BME280;29032;56.028;92.904;2023-03-17T03:15:47;100422.25;;;-1.11;46.26
42887;BME280;29032;56.028;92.904;2023-03-17T03:20:49;100433.28;;;-0.93;45.72
42887;BME280;29032;56.028;92.904;2023-03-17T03:25:53;100426.66;;;-0.73;45.23
42887;BME280;29032;56.028;92.904;2023-03-17T03:30:55;100427.59;;;-0.67;45.28
42887;BME280;29032;56.028;92.904;2023-03-17T03:35:57;100428.72;;;-0.46;45.13
42887;BME280;29032;56.028;92.904;2023-03-17T03:41:01;100423.69;;;-0.30;45.24
42887;BME280;29032;56.028;92.904;2023-03-17T03:46:04;100431.97;;;-0.21;45.37
42887;BME280;29032;56.028;92.904;2023-03-17T03:51:06;100424.06;;;-0.09;44.90
42887;BME280;29032;56.028;92.904;2023-03-17T03:56:10;100424.84;;;0.00;45.26
42887;BME280;29032;56.028;92.904;2023-03-17T04:01:12;100423.31;;;0.09;45.09
42887;BME280;29032;56.028;92.904;2023-03-17T04:06:14;100425.91;;;0.21;44.58
42887;BME280;29032;56.028;92.904;2023-03-17T04:11:18;100414.72;;;0.34;44.58
42887;BME280;29032;56.028;92.904;2023-03-17T04:16:20;100428.47;;;0.43;44.70
42887;BME280;29032;56.028;92.904;2023-03-17T04:21:22;100422.47;;;0.54;44.12
42887;BME280;29032;56.028;92.904;2023-03-17T04:26:26;100408.53;;;0.67;44.20
42887;BME280;29032;56.028;92.904;2023-03-17T04:31:28;100416.94;;;0.72;43.78
42887;BME280;29032;56.028;92.904;2023-03-17T04:36:30;100406.19;;;0.83;43.87
42887;BME280;29032;56.028;92.904;2023-03-17T04:41:34;100406.31;;;0.98;44.03
42887;BME280;29032;56.028;92.904;2023-03-17T04:46:36;100405.56;;;0.98;44.10
42887;BME280;29032;56.028;92.904;2023-03-17T04:51:38;100400.63;;;1.02;43.82
42887;BME280;29032;56.028;92.904;2023-03-17T04:56:42;100399.38;;;1.12;43.86
42887;BME280;29032;56.028;92.904;2023-03-17T05:01:44;100404.53;;;1.19;44.37
42887;BME280;29032;56.028;92.904;2023-03-17T05:06:46;100386.09;;;1.25;44.03
42887;BME280;29032;56.028;92.904;2023-03-17T05:11:50;100384.19;;;1.40;43.36
42887;BME280;29032;56.028;92.904;2023-03-17T05:16:52;100381.25;;;1.44;43.64
42887;BME280;29032;56.028;92.904;2023-03-17T05:21:54;100374.00;;;1.56;43.62
42887;BME280;29032;56.028;92.904;2023-03-17T05:26:58;100377.84;;;1.73;43.64
42887;BME280;29032;56.028;92.904;2023-03-17T05:32:00;100377.78;;;1.82;43.01
42887;BME280;29032;56.028;92.904;2023-03-17T05:37:02;100370.78;;;2.11;43.25
42887;BME280;29032;56.028;92.904;2023-03-17T05:42:06;100369.13;;;2.58;42.21
42887;BME280;29032;56.028;92.904;2023-03-17T05:47:08;100364.28;;;3.02;41.69
42887;BME280;29032;56.028;92.904;2023-03-17T05:52:10;100356.56;;;3.27;40.56
42887;BME280;29032;56.028;92.904;2023-03-17T05:57:14;100353.34;;;3.69;40.20
42887;BME280;29032;56.028;92.904;2023-03-17T06:02:16;100342.41;;;4.06;40.58
42887;BME280;29032;56.028;92.904;2023-03-17T06:07:18;100344.56;;;4.43;39.54
42887;BME280;29032;56.028;92.904;2023-03-17T06:12:22;100314.91;;;4.55;39.00
42887;BME280;29032;56.028;92.904;2023-03-17T06:17:24;100337.28;;;4.83;38.80
42887;BME280;29032;56.028;92.904;2023-03-17T06:22:26;100333.59;;;4.97;38.85
42887;BME280;29032;56.028;92.904;2023-03-17T06:27:30;100326.66;;;5.18;38.03
42887;BME280;29032;56.028;92.904;2023-03-17T06:32:32;100317.53;;;5.12;37.94
42887;BME280;29032;56.028;92.904;2023-03-17T06:37:35;100317.03;;;5.08;39.17
42887;BME280;29032;56.028;92.904;2023-03-17T06:42:38;100310.50;;;5.11;38.41
42887;BME280;29032;56.028;92.904;2023-03-17T06:47:41;100308.78;;;5.25;38.21
42887;BME280;29032;56.028;92.904;2023-03-17T06:52:43;100311.16;;;5.43;38.09
42887;BME280;29032;56.028;92.904;2023-03-17T06:57:46;100304.19;;;5.70;37.47
42887;BME280;29032;56.028;92.904;2023-03-17T07:02:48;100306.78;;;5.85;37.57
42887;BME280;29032;56.028;92.904;2023-03-17T07:07:50;100297.94;;;6.03;37.18
42887;BME280;29032;56.028;92.904;2023-03-17T07:12:54;100299.25;;;6.19;36.76
42887;BME280;29032;56.028;92.904;2023-03-17T07:17:57;100290.13;;;6.24;36.60
42887;BME280;29032;56.028;92.904;2023-03-17T07:22:59;100297.75;;;6.41;36.86
42887;BME280;29032;56.028;92.904;2023-03-17T07:28:03;100294.69;;;6.38;36.23
42887;BME280;29032;56.028;92.904;2023-03-17T07:33:06;100286.63;;;6.41;37.42
42887;BME280;29032;56.028;92.904;2023-03-17T07:38:08;100289.88;;;6.56;35.43
42887;BME280;29032;56.028;92.904;2023-03-17T07:43:11;100282.03;;;6.71;36.38
42887;BME280;29032;56.028;92.904;2023-03-17T07:48:14;100277.47;;;6.79;35.90
42887;BME280;29032;56.028;92.904;2023-03-17T07:53:16;100271.59;;;6.94;35.37
42887;BME280;29032;56.028;92.904;2023-03-17T07:58:19;100266.78;;;7.06;35.88
42887;BME280;29032;56.028;92.904;2023-03-17T08:03:21;100268.06;;;7.05;35.18
42887;BME280;29032;56.028;92.904;2023-03-17T08:08:24;100266.50;;;7.09;35.13
42887;BME280;29032;56.028;92.904;2023-03-17T08:13:28;100267.31;;;6.99;35.50
42887;BME280;29032;56.028;92.904;2023-03-17T08:18:30;100260.50;;;6.88;36.09
42887;BME280;29032;56.028;92.904;2023-03-17T08:23:32;100259.19;;;7.01;35.67
42887;BME280;29032;56.028;92.904;2023-03-17T08:28:36;100253.81;;;7.19;35.42
42887;BME280;29032;56.028;92.904;2023-03-17T08:33:38;100246.72;;;7.30;35.69
42887;BME280;29032;56.028;92.904;2023-03-17T08:38:41;100241.09;;;7.46;34.90
42887;BME280;29032;56.028;92.904;2023-03-17T08:43:46;100240.22;;;7.63;35.16
42887;BME280;29032;56.028;92.904;2023-03-17T08:48:50;100239.19;;;7.66;34.51
42887;BME280;29032;56.028;92.904;2023-03-17T08:53:53;100231.56;;;7.66;34.66
42887;BME280;29032;56.028;92.904;2023-03-17T08:58:56;100225.97;;;7.72;34.48
42887;BME280;29032;56.028;92.904;2023-03-17T09:03:59;100227.56;;;7.62;34.17
42887;BME280;29032;56.028;92.904;2023-03-17T09:09:01;100221.81;;;7.49;34.96
42887;BME280;29032;56.028;92.904;2023-03-17T09:14:05;100223.06;;;7.53;35.73
42887;BME280;29032;56.028;92.904;2023-03-17T09:19:07;100215.63;;;8.02;35.65
42887;BME280;29032;56.028;92.904;2023-03-17T09:24:09;100206.63;;;8.94;33.52
42887;BME280;29032;56.028;92.904;2023-03-17T09:29:13;100213.75;;;10.03;32.42
42887;BME280;29032;56.028;92.904;2023-03-17T09:34:15;100205.13;;;10.59;31.36
42887;BME280;29032;56.028;92.904;2023-03-17T09:39:17;100204.78;;;9.91;32.42
42887;BME280;29032;56.028;92.904;2023-03-17T09:44:33;100205.28;;;9.20;34.20
42887;BME280;29032;56.028;92.904;2023-03-17T09:49:41;100199.81;;;8.46;34.75
42887;BME280;29032;56.028;92.904;2023-03-17T09:54:46;100193.91;;;7.95;34.39
42887;BME280;29032;56.028;92.904;2023-03-17T09:59:53;100188.97;;;7.77;34.83
42887;BME280;29032;56.028;92.904;2023-03-17T10:04:55;100184.59;;;7.52;34.87
42887;BME280;29032;56.028;92.904;2023-03-17T10:10:00;100187.19;;;7.38;36.16
42887;BME280;29032;56.028;92.904;2023-03-17T10:15:14;100180.22;;;7.26;36.90
42887;BME280;29032;56.028;92.904;2023-03-17T10:20:23;100177.47;;;7.09;37.03
42887;BME280;29032;56.028;92.904;2023-03-17T10:25:28;100184.88;;;6.96;37.25
42887;BME280;29032;56.028;92.904;2023-03-17T10:30:33;100193.00;;;6.82;37.53
42887;BME280;29032;56.028;92.904;2023-03-17T10:35:36;100182.16;;;6.73;37.41
42887;BME280;29032;56.028;92.904;2023-03-17T10:40:38;100177.66;;;6.64;37.38
42887;BME280;29032;56.028;92.904;2023-03-17T10:45:53;100178.41;;;6.71;37.72
42887;BME280;29032;56.028;92.904;2023-03-17T10:50:56;100163.06;;;6.36;38.12
42887;BME280;29032;56.028;92.904;2023-03-17T10:56:06;100171.41;;;6.30;38.42
42887;BME280;29032;56.028;92.904;2023-03-17T11:01:20;100175.47;;;6.29;38.36
42887;BME280;29032;56.028;92.904;2023-03-17T11:06:31;100174.00;;;6.06;38.78
42887;BME280;29032;56.028;92.904;2023-03-17T11:11:42;100170.94;;;5.81;39.13
42887;BME280;29032;56.028;92.904;2023-03-17T11:16:52;100174.72;;;5.56;39.76
42887;BME280;29032;56.028;92.904;2023-03-17T11:21:58;100172.13;;;5.30;40.15
42887;BME280;29032;56.028;92.904;2023-03-17T11:27:11;100170.09;;;5.14;39.98
42887;BME280;29032;56.028;92.904;2023-03-17T11:32:24;100175.59;;;5.03;40.01
42887;BME280;29032;56.028;92.904;2023-03-17T11:37:43;100174.53;;;4.89;40.10
42887;BME280;29032;56.028;92.904;2023-03-17T11:42:56;100179.47;;;4.68;40.51
42887;BME280;29032;56.028;92.904;2023-03-17T11:48:22;100181.69;;;4.58;40.36
42887;BME280;29032;56.028;92.904;2023-03-17T11:53:49;100174.78;;;4.42;40.58
42887;BME280;29032;56.028;92.904;2023-03-17T11:58:57;100186.78;;;4.23;41.01
42887;BME280;29032;56.028;92.904;2023-03-17T12:04:08;100173.59;;;4.17;41.56
42887;BME280;29032;56.028;92.904;2023-03-17T12:09:18;100180.31;;;4.05;42.02
42887;BME280;29032;56.028;92.904;2023-03-17T12:14:27;100174.66;;;3.88;42.52
42887;BME280;29032;56.028;92.904;2023-03-17T12:19:39;100184.59;;;3.75;42.36
42887;BME280;29032;56.028;92.904;2023-03-17T12:24:46;100188.13;;;3.49;42.68
42887;BME280;29032;56.028;92.904;2023-03-17T12:29:54;100170.28;;;3.24;43.62
42887;BME280;29032;56.028;92.904;2023-03-17T12:35:08;100193.16;;;3.25;43.07
42887;BME280;29032;56.028;92.904;2023-03-17T12:40:18;100197.53;;;3.11;43.78
42887;BME280;29032;56.028;92.904;2023-03-17T12:56:44;100194.31;;;3.39;43.91
42887;BME280;29032;56.028;92.904;2023-03-17T13:01:54;100200.31;;;3.37;43.16
42887;BME280;29032;56.028;92.904;2023-03-17T13:07:04;100202.16;;;3.20;44.20
42887;BME280;29032;56.028;92.904;2023-03-17T13:12:34;100210.44;;;3.20;43.53
42887;BME280;29032;56.028;92.904;2023-03-17T13:17:37;100213.09;;;2.88;45.09
42887;BME280;29032;56.028;92.904;2023-03-17T13:28:16;100204.44;;;2.80;44.40
42887;BME280;29032;56.028;92.904;2023-03-17T13:33:21;100204.31;;;2.69;45.39
42887;BME280;29032;56.028;92.904;2023-03-17T13:38:36;100202.16;;;2.79;44.67
42887;BME280;29032;56.028;92.904;2023-03-17T13:43:59;100196.72;;;3.05;43.86
42887;BME280;29032;56.028;92.904;2023-03-17T13:49:18;100202.31;;;3.11;44.40
42887;BME280;29032;56.028;92.904;2023-03-17T13:54:31;100194.84;;;3.17;44.17
42887;BME280;29032;56.028;92.904;2023-03-17T13:59:41;100185.72;;;3.11;44.58
42887;BME280;29032;56.028;92.904;2023-03-17T14:04:57;100195.25;;;3.10;44.56
42887;BME280;29032;56.028;92.904;2023-03-17T14:10:02;100201.56;;;3.10;44.29
42887;BME280;29032;56.028;92.904;2023-03-17T14:15:10;100207.41;;;2.97;44.26
42887;BME280;29032;56.028;92.904;2023-03-17T14:20:22;100212.31;;;2.88;44.91
42887;BME280;29032;56.028;92.904;2023-03-17T14:25:31;100205.41;;;2.77;44.01
42887;BME280;29032;56.028;92.904;2023-03-17T14:30:34;100215.13;;;2.73;44.29
42887;BME280;29032;56.028;92.904;2023-03-17T14:35:39;100203.66;;;2.80;44.42
42887;BME280;29032;56.028;92.904;2023-03-17T14:40:43;100208.75;;;2.82;43.85
42887;BME280;29032;56.028;92.904;2023-03-17T14:45:48;100207.50;;;2.83;44.31
42887;BME280;29032;56.028;92.904;2023-03-17T14:50:52;100206.38;;;2.74;44.38
42887;BME280;29032;56.028;92.904;2023-03-17T14:55:57;100209.56;;;2.67;44.44
42887;BME280;29032;56.028;92.904;2023-03-17T15:01:02;100207.88;;;2.55;44.75
42887;BME280;29032;56.028;92.904;2023-03-17T15:06:19;100214.69;;;2.39;45.03
42887;BME280;29032;56.028;92.904;2023-03-17T15:11:26;100209.81;;;2.34;45.15
42887;BME280;29032;56.028;92.904;2023-03-17T15:16:32;100215.84;;;2.18;45.13
42887;BME280;29032;56.028;92.904;2023-03-17T15:21:38;100215.06;;;2.03;45.63
42887;BME280;29032;56.028;92.904;2023-03-17T15:26:42;100211.47;;;1.82;45.52
42887;BME280;29032;56.028;92.904;2023-03-17T15:31:44;100211.28;;;1.56;45.83
42887;BME280;29032;56.028;92.904;2023-03-17T15:36:46;100212.59;;;1.46;45.60
42887;BME280;29032;56.028;92.904;2023-03-17T15:41:51;100209.56;;;1.43;46.04
42887;BME280;29032;56.028;92.904;2023-03-17T15:46:53;100216.41;;;1.33;45.68
42887;BME280;29032;56.028;92.904;2023-03-17T15:51:55;100209.06;;;1.30;46.15
42887;BME280;29032;56.028;92.904;2023-03-17T15:56:59;100204.38;;;1.22;45.81
42887;BME280;29032;56.028;92.904;2023-03-17T16:02:01;100205.88;;;1.08;45.82
42887;BME280;29032;56.028;92.904;2023-03-17T16:07:08;100196.91;;;0.98;46.50
42887;BME280;29032;56.028;92.904;2023-03-17T16:12:13;100197.72;;;0.89;46.23
42887;BME280;29032;56.028;92.904;2023-03-17T16:17:21;100193.44;;;0.88;46.63
42887;BME280;29032;56.028;92.904;2023-03-17T16:22:37;100193.84;;;0.96;45.90
42887;BME280;29032;56.028;92.904;2023-03-17T16:27:42;100204.94;;;0.87;46.21
42887;BME280;29032;56.028;92.904;2023-03-17T16:32:44;100192.53;;;0.92;46.61
42887;BME280;29032;56.028;92.904;2023-03-17T16:37:46;100195.50;;;1.03;45.97
42887;BME280;29032;56.028;92.904;2023-03-17T16:42:50;100195.59;;;1.08;45.63
42887;BME280;29032;56.028;92.904;2023-03-17T16:47:52;100192.09;;;1.08;45.44
42887;BME280;29032;56.028;92.904;2023-03-17T16:52:55;100181.59;;;0.97;45.63
42887;BME280;29032;56.028;92.904;2023-03-17T16:58:02;100179.63;;;0.98;45.84
42887;BME280;29032;56.028;92.904;2023-03-17T17:03:04;100173.66;;;0.75;46.05
42887;BME280;29032;56.028;92.904;2023-03-17T17:08:07;100159.72;;;0.55;46.70
42887;BME280;29032;56.028;92.904;2023-03-17T17:13:11;100174.34;;;0.61;46.84
42887;BME280;29032;56.028;92.904;2023-03-17T17:18:14;100174.34;;;0.61;46.54
42887;BME280;29032;56.028;92.904;2023-03-17T17:23:18;100172.56;;;0.58;46.80
42887;BME280;29032;56.028;92.904;2023-03-17T17:28:23;100175.47;;;0.54;46.80
42887;BME280;29032;56.028;92.904;2023-03-17T17:33:25;100164.50;;;0.45;46.64
42887;BME280;29032;56.028;92.904;2023-03-17T17:38:30;100158.13;;;0.39;46.96
42887;BME280;29032;56.028;92.904;2023-03-17T17:43:33;100158.47;;;0.32;47.22
42887;BME280;29032;56.028;92.904;2023-03-17T17:48:36;100144.91;;;0.28;46.84
42887;BME280;29032;56.028;92.904;2023-03-17T17:53:38;100151.84;;;0.15;47.15
42887;BME280;29032;56.028;92.904;2023-03-17T17:58:42;100159.19;;;0.09;47.23
42887;BME280;29032;56.028;92.904;2023-03-17T18:03:44;100157.69;;;-0.02;47.05
42887;BME280;29032;56.028;92.904;2023-03-17T18:08:48;100160.16;;;-0.04;47.47
42887;BME280;29032;56.028;92.904;2023-03-17T18:13:51;100158.47;;;-0.01;47.46
42887;BME280;29032;56.028;92.904;2023-03-17T18:18:53;100156.59;;;0.05;47.42
42887;BME280;29032;56.028;92.904;2023-03-17T18:23:56;100156.25;;;0.12;47.30
42887;BME280;29032;56.028;92.904;2023-03-17T18:29:00;100149.72;;;0.10;47.01
42887;BME280;29032;56.028;92.904;2023-03-17T18:34:05;100146.28;;;-0.09;47.25
42887;BME280;29032;56.028;92.904;2023-03-17T18:39:07;100147.84;;;-0.27;47.55
42887;BME280;29032;56.028;92.904;2023-03-17T18:44:11;100136.41;;;-0.34;47.93
42887;BME280;29032;56.028;92.904;2023-03-17T18:49:13;100132.03;;;-0.59;47.96
42887;BME280;29032;56.028;92.904;2023-03-17T18:54:15;100121.84;;;-0.77;48.41
42887;BME280;29032;56.028;92.904;2023-03-17T18:59:19;100124.13;;;-0.76;48.38
42887;BME280;29032;56.028;92.904;2023-03-17T19:04:21;100120.16;;;-0.74;48.36
42887;BME280;29032;56.028;92.904;2023-03-17T19:09:23;100121.22;;;-0.72;48.04
42887;BME280;29032;56.028;92.904;2023-03-17T19:14:27;100125.81;;;-0.69;48.09
42887;BME280;29032;56.028;92.904;2023-03-17T19:19:29;100113.16;;;-0.85;48.49
42887;BME280;29032;56.028;92.904;2023-03-17T19:24:34;100111.63;;;-0.77;48.49
42887;BME280;29032;56.028;92.904;2023-03-17T19:29:38;100107.78;;;-0.61;48.07
42887;BME280;29032;56.028;92.904;2023-03-17T19:34:40;100102.09;;;-0.48;47.79
42887;BME280;29032;56.028;92.904;2023-03-17T19:39:42;100096.31;;;-0.50;47.50
42887;BME280;29032;56.028;92.904;2023-03-17T19:44:46;100078.72;;;-0.53;47.94
42887;BME280;29032;56.028;92.904;2023-03-17T19:49:48;100078.00;;;-0.62;47.98
42887;BME280;29032;56.028;92.904;2023-03-17T19:54:50;100075.72;;;-0.64;47.70
42887;BME280;29032;56.028;92.904;2023-03-17T19:59:53;100073.41;;;-0.65;48.01
42887;BME280;29032;56.028;92.904;2023-03-17T20:04:55;100064.91;;;-0.86;48.03
42887;BME280;29032;56.028;92.904;2023-03-17T20:09:58;100058.09;;;-0.99;48.10
42887;BME280;29032;56.028;92.904;2023-03-17T20:15:01;100055.22;;;-1.05;48.43
42887;BME280;29032;56.028;92.904;2023-03-17T20:20:05;100047.44;;;-1.16;48.71
42887;BME280;29032;56.028;92.904;2023-03-17T20:25:08;100041.34;;;-1.29;48.63
42887;BME280;29032;56.028;92.904;2023-03-17T20:30:12;100023.50;;;-1.43;49.10
42887;BME280;29032;56.028;92.904;2023-03-17T20:35:14;100025.38;;;-1.49;48.80
42887;BME280;29032;56.028;92.904;2023-03-17T20:40:17;100023.38;;;-1.57;49.06
42887;BME280;29032;56.028;92.904;2023-03-17T20:45:20;100029.00;;;-1.61;49.31
42887;BME280;29032;56.028;92.904;2023-03-17T20:50:22;100020.91;;;-1.65;49.08
42887;BME280;29032;56.028;92.904;2023-03-17T20:55:24;100013.44;;;-1.64;49.37
42887;BME280;29032;56.028;92.904;2023-03-17T21:00:28;100008.59;;;-1.60;48.99
42887;BME280;29032;56.028;92.904;2023-03-17T21:05:31;100011.94;;;-1.74;49.61
42887;BME280;29032;56.028;92.904;2023-03-17T21:10:33;100005.53;;;-1.71;49.91
42887;BME280;29032;56.028;92.904;2023-03-17T21:15:36;99998.97;;;-1.65;49.85
42887;BME280;29032;56.028;92.904;2023-03-17T21:20:38;100005.84;;;-1.69;49.83
42887;BME280;29032;56.028;92.904;2023-03-17T21:25:41;99993.34;;;-1.70;49.85
42887;BME280;29032;56.028;92.904;2023-03-17T21:30:44;100002.63;;;-1.49;49.20
42887;BME280;29032;56.028;92.904;2023-03-17T21:35:47;100001.28;;;-1.54;48.83
42887;BME280;29032;56.028;92.904;2023-03-17T21:40:49;99992.88;;;-1.78;48.89
42887;BME280;29032;56.028;92.904;2023-03-17T21:45:52;99999.72;;;-1.92;49.40
42887;BME280;29032;56.028;92.904;2023-03-17T21:50:54;99988.56;;;-2.06;49.41
42887;BME280;29032;56.028;92.904;2023-03-17T21:55:56;99983.84;;;-2.06;49.21
42887;BME280;29032;56.028;92.904;2023-03-17T22:01:00;99989.34;;;-2.15;48.50
42887;BME280;29032;56.028;92.904;2023-03-17T22:06:02;99978.94;;;-2.29;49.52
42887;BME280;29032;56.028;92.904;2023-03-17T22:11:08;99981.69;;;-2.29;49.82
42887;BME280;29032;56.028;92.904;2023-03-17T22:16:14;99980.81;;;-2.26;49.62
42887;BME280;29032;56.028;92.904;2023-03-17T22:21:16;99984.13;;;-2.31;49.83
42887;BME280;29032;56.028;92.904;2023-03-17T22:26:20;99988.84;;;-2.32;49.48
42887;BME280;29032;56.028;92.904;2023-03-17T22:31:26;99984.59;;;-2.24;49.84
42887;BME280;29032;56.028;92.904;2023-03-17T22:36:28;99975.63;;;-2.15;49.58
42887;BME280;29032;56.028;92.904;2023-03-17T22:41:31;99975.63;;;-2.24;49.67
42887;BME280;29032;56.028;92.904;2023-03-17T22:46:34;99971.19;;;-2.22;49.59
42887;BME280;29032;56.028;92.904;2023-03-17T22:51:37;99960.41;;;-2.25;49.74
42887;BME280;29032;56.028;92.904;2023-03-17T22:56:40;99968.63;;;-2.25;49.47
42887;BME280;29032;56.028;92.904;2023-03-17T23:01:43;99965.56;;;-2.27;50.51
42887;BME280;29032;56.028;92.904;2023-03-17T23:06:46;99965.56;;;-2.27;50.26
42887;BME280;29032;56.028;92.904;2023-03-17T23:11:48;99963.72;;;-2.30;49.69
42887;BME280;29032;56.028;92.904;2023-03-17T23:16:51;99950.91;;;-2.43;49.83
42887;BME280;29032;56.028;92.904;2023-03-17T23:21:53;99937.75;;;-2.66;50.72
42887;BME280;29032;56.028;92.904;2023-03-17T23:26:56;99953.91;;;-2.59;50.38
42887;BME280;29032;56.028;92.904;2023-03-17T23:31:59;99948.16;;;-2.52;50.07
42887;BME280;29032;56.028;92.904;2023-03-17T23:37:01;99940.19;;;-2.68;49.98
42887;BME280;29032;56.028;92.904;2023-03-17T23:42:03;99938.63;;;-2.78;50.32
42887;BME280;29032;56.028;92.904;2023-03-17T23:47:07;99937.25;;;-2.83;50.51
42887;BME280;29032;56.028;92.904;2023-03-17T23:52:10;99942.28;;;-2.81;50.56
42887;BME280;29032;56.028;92.904;2023-03-17T23:57:12;99942.75;;;-2.74;50.39
